Time,TemperatureF,DewpointF,PressureIn,WindDirection,WindDirectionDegrees,WindSpeedMPH,WindSpeedGustMPH,Humidity,HourlyPrecipIn,Conditions,Clouds,dailyrainin,SoftwareType,DateUTC
2013-04-15 08:20:00,82.2,71.4,30.02,ENE,78,10.0,10.0,70,0.00,,,0.00,Wunderground v.1.15,2013-04-15 12:20:00,
2013-04-15 08:30:00,82.0,70.4,30.02,ENE,76,11.0,12.0,68,0.00,,,0.00,Wunderground v.1.15,2013-04-15 12:30:00,
2013-04-15 08:40:00,82.8,71.6,30.02,East,86,11.0,11.0,69,0.00,,,0.00,Wunderground v.1.15,2013-04-15 12:40:00,
2013-04-15 08:50:00,83.8,70.8,30.02,ESE,103,10.0,10.0,65,0.00,,,0.00,Wunderground v.1.15,2013-04-15 12:50:00,
2013-04-15 09:00:00,83.8,71.2,30.03,ENE,62,11.0,13.0,66,0.00,,,0.00,Wunderground v.1.15,2013-04-15 13:00:00,
2013-04-15 09:10:00,83.8,70.8,30.04,ENE,65,11.0,11.0,65,0.00,,,0.00,Wunderground v.1.15,2013-04-15 13:10:00,
2013-04-15 09:20:00,83.6,70.6,30.04,ENE,64,12.0,14.0,65,0.00,,,0.00,Wunderground v.1.15,2013-04-15 13:20:00,
2013-04-15 09:30:00,84.0,70.5,30.03,East,80,12.0,13.0,64,0.00,,,0.00,Wunderground v.1.15,2013-04-15 13:30:00,
2013-04-15 09:40:00,84.0,69.6,30.03,East,84,12.0,14.0,62,0.00,,,0.00,Wunderground v.1.15,2013-04-15 13:40:00,
2013-04-15 09:50:00,84.7,70.2,30.03,ESE,107,11.0,11.0,62,0.00,,,0.00,Wunderground v.1.15,2013-04-15 13:50:00,
2013-04-15 10:00:00,84.5,70.5,30.03,East,96,12.0,12.0,63,0.00,,,0.00,Wunderground v.1.15,2013-04-15 14:00:00,
2013-04-15 10:10:00,84.5,70.5,30.03,East,94,12.0,12.0,63,0.00,,,0.00,Wunderground v.1.15,2013-04-15 14:10:00,
2013-04-15 10:20:00,84.9,70.9,30.03,East,85,12.0,12.0,63,0.00,,,0.00,Wunderground v.1.15,2013-04-15 14:20:00,
2013-04-15 10:30:00,85.3,70.3,30.03,East,86,11.0,15.0,61,0.00,,,0.00,Wunderground v.1.15,2013-04-15 14:30:00,
2013-04-15 10:40:00,85.5,70.5,30.03,East,86,12.0,16.0,61,0.00,,,0.00,Wunderground v.1.15,2013-04-15 14:40:00,
2013-04-15 10:50:00,85.3,71.3,30.03,East,94,12.0,12.0,63,0.00,,,0.00,Wunderground v.1.15,2013-04-15 14:50:00,
2013-04-15 11:00:00,85.3,70.8,30.04,East,85,12.0,13.0,62,0.00,,,0.00,Wunderground v.1.15,2013-04-15 15:00:00,
2013-04-15 11:10:00,85.3,70.8,30.03,SE,130,12.0,13.0,62,0.00,,,0.00,Wunderground v.1.15,2013-04-15 15:10:00,
2013-04-15 11:20:00,85.5,71.0,30.03,East,91,12.0,17.0,62,0.00,,,0.00,Wunderground v.1.15,2013-04-15 15:20:00,
2013-04-15 11:30:00,85.5,70.5,30.03,East,101,13.0,13.0,61,0.00,,,0.00,Wunderground v.1.15,2013-04-15 15:30:00,
2013-04-15 11:40:00,85.7,70.2,30.03,ENE,77,13.0,13.0,60,0.00,,,0.00,Wunderground v.1.15,2013-04-15 15:40:00,
2013-04-15 11:50:00,85.9,70.4,30.03,ENE,68,13.0,13.0,60,0.00,,,0.00,Wunderground v.1.15,2013-04-15 15:50:00,
2013-04-15 12:00:00,85.7,70.2,30.03,East,94,12.0,12.0,60,0.00,,,0.00,Wunderground v.1.15,2013-04-15 16:00:00,
2013-04-15 12:10:00,85.7,70.7,30.03,East,85,12.0,12.0,61,0.00,,,0.00,Wunderground v.1.15,2013-04-15 16:10:00,
2013-04-15 13:10:00,86.1,70.6,30.01,ENE,74,12.0,12.0,60,0.00,,,0.00,Wunderground v.1.15,2013-04-15 17:10:00,
2013-04-15 13:20:00,85.3,70.8,30.01,ENE,61,12.0,12.0,62,0.00,,,0.00,Wunderground v.1.15,2013-04-15 17:20:00,
2013-04-15 13:30:00,85.1,70.1,30.01,ENE,63,12.0,12.0,61,0.00,,,0.00,Wunderground v.1.15,2013-04-15 17:30:00,
2013-04-15 13:40:00,85.7,70.7,30.00,East,92,12.0,20.0,61,0.00,,,0.00,Wunderground v.1.15,2013-04-15 17:40:00,
2013-04-15 13:50:00,85.3,70.3,30.00,ESE,110,12.0,12.0,61,0.00,,,0.00,Wunderground v.1.15,2013-04-15 17:50:00,
2013-04-15 14:00:00,85.9,70.4,30.00,ESE,105,11.0,11.0,60,0.00,,,0.00,Wunderground v.1.15,2013-04-15 18:00:00,
2013-04-15 14:10:00,86.1,70.1,29.99,East,83,10.0,10.0,59,0.00,,,0.00,Wunderground v.1.15,2013-04-15 18:10:00,
2013-04-15 14:20:00,85.7,70.2,29.99,ENE,66,12.0,12.0,60,0.00,,,0.00,Wunderground v.1.15,2013-04-15 18:20:00,
2013-04-15 14:30:00,85.7,70.7,29.98,East,82,11.0,11.0,61,0.00,,,0.00,Wunderground v.1.15,2013-04-15 18:30:00,
2013-04-15 14:40:00,84.9,70.9,29.98,ENE,70,12.0,12.0,63,0.00,,,0.00,Wunderground v.1.15,2013-04-15 18:40:00,
2013-04-15 14:50:00,84.7,70.2,29.98,ENE,75,12.0,12.0,62,0.00,,,0.00,Wunderground v.1.15,2013-04-15 18:50:00,
2013-04-15 15:00:00,85.1,70.1,29.98,East,84,10.0,14.0,61,0.00,,,0.00,Wunderground v.1.15,2013-04-15 19:00:00,
2013-04-15 15:10:00,84.5,72.8,29.98,East,93,12.0,12.0,68,0.00,,,0.00,Wunderground v.1.15,2013-04-15 19:10:00,
2013-04-15 15:20:00,84.7,70.2,29.98,ENE,77,11.0,14.0,62,0.00,,,0.00,Wunderground v.1.15,2013-04-15 19:20:00,
2013-04-15 15:30:00,84.9,70.4,29.97,ENE,69,10.0,14.0,62,0.00,,,0.00,Wunderground v.1.15,2013-04-15 19:30:00,
2013-04-15 15:40:00,84.0,70.5,29.97,ENE,74,12.0,12.0,64,0.00,,,0.00,Wunderground v.1.15,2013-04-15 19:40:00,
2013-04-15 16:00:00,84.3,70.8,29.97,East,98,10.0,13.0,64,0.00,,,0.00,Wunderground v.1.15,2013-04-15 20:00:00,
2013-04-15 16:10:00,83.8,70.3,29.97,East,92,12.0,17.0,64,0.00,,,0.00,Wunderground v.1.15,2013-04-15 20:10:00,
2013-04-15 16:20:00,83.2,71.1,29.97,ENE,75,12.0,19.0,67,0.00,,,0.00,Wunderground v.1.15,2013-04-15 20:20:00,
2013-04-15 16:30:00,82.2,70.1,29.97,ENE,77,11.0,11.0,67,0.00,,,0.00,Wunderground v.1.15,2013-04-15 20:30:00,
2013-04-15 16:40:00,82.4,70.8,29.97,ENE,76,10.0,10.0,68,0.00,,,0.00,Wunderground v.1.15,2013-04-15 20:40:00,
2013-04-15 16:50:00,82.8,71.2,29.97,ENE,69,10.0,10.0,68,0.00,,,0.00,Wunderground v.1.15,2013-04-15 20:50:00,
2013-04-15 17:00:00,82.6,71.0,29.97,East,79,10.0,10.0,68,0.00,,,0.00,Wunderground v.1.15,2013-04-15 21:00:00,
2013-04-15 17:10:00,81.8,70.6,29.97,ENE,75,10.0,11.0,69,0.00,,,0.00,Wunderground v.1.15,2013-04-15 21:10:00,
2013-04-15 17:20:00,81.2,70.5,29.97,ENE,76,11.0,11.0,70,0.00,,,0.00,Wunderground v.1.15,2013-04-15 21:20:00,
2013-04-15 17:30:00,81.4,70.7,29.97,East,82,9.0,10.0,70,0.00,,,0.00,Wunderground v.1.15,2013-04-15 21:30:00,
2013-04-15 17:40:00,80.9,70.6,29.98,ENE,72,11.0,16.0,71,0.00,,,0.00,Wunderground v.1.15,2013-04-15 21:40:00,
2013-04-15 17:50:00,80.3,70.4,29.98,ESE,115,10.0,10.0,72,0.00,,,0.00,Wunderground v.1.15,2013-04-15 21:50:00,
2013-04-15 18:00:00,79.8,70.0,29.98,East,101,10.0,12.0,72,0.00,,,0.00,Wunderground v.1.15,2013-04-15 22:00:00,
2013-04-15 18:10:00,79.6,70.6,29.98,ENE,57,10.0,10.0,74,0.00,,,0.00,Wunderground v.1.15,2013-04-15 22:10:00,
2013-04-15 18:20:00,79.2,70.2,29.98,ENE,76,8.0,8.0,74,0.00,,,0.00,Wunderground v.1.15,2013-04-15 22:20:00,
2013-04-15 18:30:00,79.2,70.6,29.98,ENE,66,10.0,12.0,75,0.00,,,0.00,Wunderground v.1.15,2013-04-15 22:30:00,
2013-04-15 18:40:00,79.0,70.4,29.99,NE,38,9.0,17.0,75,0.00,,,0.00,Wunderground v.1.15,2013-04-15 22:40:00,
2013-04-15 18:50:00,78.8,70.6,29.99,East,86,10.0,10.0,76,0.00,,,0.00,Wunderground v.1.15,2013-04-15 22:50:00,
2013-04-15 19:00:00,78.5,69.9,29.99,ENE,74,10.0,11.0,75,0.00,,,0.00,Wunderground v.1.15,2013-04-15 23:00:00,
2013-04-15 19:10:00,78.5,70.3,30.00,ENE,66,9.0,11.0,76,0.00,,,0.00,Wunderground v.1.15,2013-04-15 23:10:00,
2013-04-15 19:20:00,78.5,70.7,30.00,ENE,69,7.0,9.0,77,0.00,,,0.00,Wunderground v.1.15,2013-04-15 23:20:00,
2013-04-15 19:30:00,78.5,70.7,30.00,ENE,72,9.0,11.0,77,0.00,,,0.00,Wunderground v.1.15,2013-04-15 23:30:00,
2013-04-15 19:40:00,78.3,70.5,30.00,ENE,71,9.0,12.0,77,0.00,,,0.00,Wunderground v.1.15,2013-04-15 23:40:00,
2013-04-15 19:50:00,78.3,70.9,30.00,ENE,57,8.0,10.0,78,0.00,,,0.00,Wunderground v.1.15,2013-04-15 23:50:00,
2013-04-15 20:00:00,78.3,70.9,30.00,ENE,74,9.0,9.0,78,0.00,,,0.00,Wunderground v.1.15,2013-04-16 00:00:00,